createdAt,value
2023-03-26T00:00:01.047Z,10.58
2023-03-26T00:01:01.026Z,10.60
2023-03-26T00:02:01.055Z,10.55
2023-03-26T00:03:01.008Z,10.66
2023-03-26T00:04:00.959Z,10.68
2023-03-26T00:05:00.918Z,10.66
2023-03-26T00:06:00.967Z,10.66
2023-03-26T00:07:00.876Z,10.59
2023-03-26T00:08:00.854Z,10.63
2023-03-26T00:09:00.845Z,10.70
2023-03-26T00:10:00.806Z,10.65
2023-03-26T00:11:01.254Z,10.55
2023-03-26T00:12:00.757Z,10.55
2023-03-26T00:13:00.744Z,10.56
2023-03-26T00:14:00.732Z,10.55
2023-03-26T00:15:00.682Z,10.51
2023-03-26T00:16:00.653Z,10.55
2023-03-26T00:17:00.639Z,10.51
2023-03-26T00:18:00.650Z,10.56
2023-03-26T00:19:00.588Z,10.59
2023-03-26T00:20:00.585Z,10.63
2023-03-26T00:21:00.559Z,10.63
2023-03-26T00:22:00.524Z,10.62
2023-03-26T00:23:00.497Z,10.55
2023-03-26T00:24:00.455Z,10.46
2023-03-26T00:25:00.441Z,10.43
2023-03-26T00:26:00.424Z,10.37
2023-03-26T00:27:00.390Z,10.34
2023-03-26T00:28:00.376Z,10.36
2023-03-26T00:29:00.353Z,10.26
2023-03-26T00:30:00.320Z,10.25
2023-03-26T00:31:00.313Z,10.25
2023-03-26T00:32:00.267Z,10.26
2023-03-26T00:33:00.447Z,10.21
2023-03-26T00:34:00.376Z,10.15
2023-03-26T00:35:00.208Z,10.24
2023-03-26T00:36:02.473Z,10.19
2023-03-26T00:37:00.155Z,10.28
2023-03-26T00:38:00.161Z,10.21
2023-03-26T00:39:00.120Z,10.17
2023-03-26T00:40:00.917Z,10.21
2023-03-26T00:41:00.098Z,10.19
2023-03-26T00:42:00.039Z,10.18
2023-03-26T00:43:00.023Z,10.18
2023-03-26T00:44:00.012Z,10.15
2023-03-26T00:44:59.965Z,10.15
2023-03-26T00:45:59.970Z,10.01
2023-03-26T00:46:59.913Z,10.03
2023-03-26T00:47:59.918Z,10.03
2023-03-26T00:48:59.935Z,10.07
2023-03-26T00:49:59.855Z,9.97
2023-03-26T00:50:59.836Z,10.03
2023-03-26T00:51:59.784Z,9.96
2023-03-26T00:52:59.779Z,9.81
2023-03-26T00:53:59.738Z,9.86
2023-03-26T00:54:59.718Z,9.81
2023-03-26T00:55:59.692Z,9.86
2023-03-26T00:56:59.695Z,9.88
2023-03-26T00:57:59.641Z,9.79
2023-03-26T00:58:59.618Z,9.93
2023-03-26T00:59:59.600Z,9.85
2023-03-26T01:00:59.579Z,9.86
2023-03-26T01:01:59.581Z,9.79
2023-03-26T01:02:59.766Z,9.83
2023-03-26T01:04:08.205Z,9.75
2023-03-26T01:04:59.552Z,9.85
2023-03-26T01:05:59.452Z,9.78
2023-03-26T01:06:59.453Z,9.85
2023-03-26T01:07:59.393Z,9.82
2023-03-26T01:08:59.379Z,9.75
2023-03-26T01:09:59.351Z,9.73
2023-03-26T01:10:59.338Z,9.78
2023-03-26T01:11:59.295Z,9.70
2023-03-26T01:12:59.284Z,9.70
2023-03-26T01:13:59.262Z,9.57
2023-03-26T01:14:59.231Z,9.75
2023-03-26T01:15:59.242Z,9.73
2023-03-26T01:16:59.191Z,9.76
2023-03-26T01:17:59.210Z,9.73
2023-03-26T01:18:59.300Z,9.78
2023-03-26T01:19:59.130Z,9.75
2023-03-26T01:20:59.082Z,9.71
2023-03-26T01:21:59.113Z,9.76
2023-03-26T01:22:59.038Z,9.71
2023-03-26T01:23:59.001Z,9.75
2023-03-26T01:24:59.012Z,9.71
2023-03-26T01:25:58.962Z,9.73
2023-03-26T01:26:58.935Z,9.76
2023-03-26T01:27:58.913Z,9.71
2023-03-26T01:28:58.886Z,9.71
2023-03-26T01:29:58.854Z,9.75
2023-03-26T01:30:58.844Z,9.60
2023-03-26T01:31:58.811Z,9.68
2023-03-26T01:32:58.881Z,9.58
2023-03-26T01:33:58.782Z,9.61
2023-03-26T01:34:58.775Z,9.71
2023-03-26T01:35:58.859Z,9.57
2023-03-26T01:36:58.695Z,9.61
2023-03-26T01:37:58.773Z,9.40
2023-03-26T01:38:59.379Z,9.34
2023-03-26T01:39:58.614Z,9.38
2023-03-26T01:40:58.593Z,9.35
2023-03-26T01:41:58.587Z,9.31
2023-03-26T01:42:58.544Z,9.28
2023-03-26T01:43:58.510Z,9.15
2023-03-26T01:44:58.558Z,9.25
2023-03-26T01:45:58.462Z,9.21
2023-03-26T01:46:58.477Z,9.23
2023-03-26T01:47:58.443Z,9.18
2023-03-26T01:48:58.436Z,9.21
2023-03-26T01:49:58.365Z,9.09
2023-03-26T01:50:58.346Z,9.15
2023-03-26T01:51:58.362Z,9.16
2023-03-26T01:52:58.291Z,9.13
2023-03-26T01:53:58.262Z,9.04
2023-03-26T01:54:58.247Z,9.02
2023-03-26T01:55:58.221Z,9.01
2023-03-26T01:56:58.218Z,8.94
2023-03-26T01:57:58.169Z,8.93
2023-03-26T01:58:58.140Z,8.88
2023-03-26T01:59:58.119Z,8.91
2023-03-26T02:00:58.091Z,8.79
2023-03-26T02:01:58.145Z,8.91
2023-03-26T02:02:58.150Z,8.87
2023-03-26T02:03:58.023Z,8.93
2023-03-26T02:04:57.996Z,8.94
2023-03-26T02:05:57.987Z,8.96
2023-03-26T02:06:57.944Z,8.91
2023-03-26T02:07:57.946Z,8.99
2023-03-26T02:08:57.908Z,9.09
2023-03-26T02:09:57.880Z,9.15
2023-03-26T02:10:57.851Z,9.25
2023-03-26T02:11:57.824Z,9.25
2023-03-26T02:12:57.797Z,9.21
2023-03-26T02:13:57.780Z,9.28
2023-03-26T02:14:57.741Z,9.27
2023-03-26T02:15:57.862Z,9.31
2023-03-26T02:16:57.710Z,9.38
2023-03-26T02:17:57.723Z,9.45
2023-03-26T02:18:57.701Z,9.46
2023-03-26T02:19:57.630Z,9.48
2023-03-26T02:20:57.593Z,9.46
2023-03-26T02:21:57.588Z,9.45
2023-03-26T02:22:57.560Z,9.46
2023-03-26T02:23:57.543Z,9.35
2023-03-26T02:24:57.505Z,9.42
2023-03-26T02:25:57.494Z,9.39
2023-03-26T02:26:57.459Z,9.31
2023-03-26T02:27:57.429Z,9.35
2023-03-26T02:28:57.426Z,9.24
2023-03-26T02:29:57.376Z,9.27
2023-03-26T02:30:57.353Z,9.18
2023-03-26T02:31:57.399Z,9.24
2023-03-26T02:32:57.335Z,9.27
2023-03-26T02:33:57.310Z,9.21
2023-03-26T02:34:57.257Z,9.10
2023-03-26T02:35:57.438Z,9.12
2023-03-26T02:36:57.249Z,9.16
2023-03-26T02:37:57.185Z,9.06
2023-03-26T02:38:57.180Z,9.10
2023-03-26T02:39:57.139Z,8.97
2023-03-26T02:40:57.104Z,9.05
2023-03-26T02:41:57.086Z,9.01
2023-03-26T02:42:57.061Z,9.01
2023-03-26T02:43:57.043Z,9.10
2023-03-26T02:44:57.007Z,9.09
2023-03-26T02:45:57.390Z,9.12
2023-03-26T02:46:56.980Z,8.96
2023-03-26T02:47:56.955Z,9.10
2023-03-26T02:48:56.943Z,9.10
2023-03-26T02:49:56.892Z,9.05
2023-03-26T02:50:56.873Z,9.06
2023-03-26T02:51:56.838Z,9.06
2023-03-26T02:52:56.820Z,9.10
2023-03-26T02:53:56.798Z,9.10
2023-03-26T02:54:56.763Z,9.10
2023-03-26T02:55:56.950Z,9.06
2023-03-26T02:56:56.746Z,9.05
2023-03-26T02:57:56.702Z,9.12
2023-03-26T02:58:56.663Z,9.06
2023-03-26T02:59:56.639Z,9.06
2023-03-26T03:00:56.752Z,9.10
2023-03-26T03:01:56.599Z,9.13
2023-03-26T03:02:56.724Z,9.12
2023-03-26T03:03:56.554Z,9.18
2023-03-26T03:04:56.516Z,9.16
2023-03-26T03:05:56.792Z,9.15
2023-03-26T03:06:56.505Z,9.10
2023-03-26T03:07:56.450Z,9.15
2023-03-26T03:08:56.425Z,9.24
2023-03-26T03:09:56.409Z,9.20
2023-03-26T03:10:56.416Z,9.16
2023-03-26T03:11:56.351Z,9.10
2023-03-26T03:12:56.321Z,9.20
2023-03-26T03:13:56.295Z,9.09
2023-03-26T03:14:56.286Z,9.16
2023-03-26T03:15:56.357Z,9.13
2023-03-26T03:16:56.269Z,9.13
2023-03-26T03:17:56.240Z,9.09
2023-03-26T03:18:57.853Z,9.06
2023-03-26T03:19:56.150Z,9.12
2023-03-26T03:20:56.130Z,9.12
2023-03-26T03:21:56.101Z,9.15
2023-03-26T03:22:56.073Z,9.25
2023-03-26T03:23:56.053Z,9.24
2023-03-26T03:24:56.036Z,9.24
2023-03-26T03:25:56.160Z,9.21
2023-03-26T03:26:55.996Z,9.20
2023-03-26T03:27:55.961Z,9.21
2023-03-26T03:28:55.926Z,9.16
2023-03-26T03:29:55.925Z,9.18
2023-03-26T03:30:55.901Z,9.23
2023-03-26T03:31:55.879Z,9.20
2023-03-26T03:32:55.860Z,9.20
2023-03-26T03:33:55.812Z,9.25
2023-03-26T03:34:55.785Z,9.27
2023-03-26T03:35:55.963Z,9.30
2023-03-26T03:36:55.737Z,9.25
2023-03-26T03:37:55.716Z,9.23
2023-03-26T03:38:55.682Z,9.23
2023-03-26T03:39:55.714Z,9.25
2023-03-26T03:40:55.636Z,9.18
2023-03-26T03:41:55.629Z,9.15
2023-03-26T03:42:55.587Z,9.16
2023-03-26T03:43:55.576Z,9.16
2023-03-26T03:44:55.541Z,9.15
2023-03-26T03:45:55.754Z,9.16
2023-03-26T03:46:55.536Z,9.24
2023-03-26T03:47:55.513Z,9.21
2023-03-26T03:48:55.457Z,9.27
2023-03-26T03:49:55.541Z,9.21
2023-03-26T03:50:55.395Z,9.32
2023-03-26T03:51:55.367Z,9.20
2023-03-26T03:52:55.348Z,9.18
2023-03-26T03:53:55.324Z,9.12
2023-03-26T03:54:55.298Z,9.15
2023-03-26T03:55:55.530Z,9.10
2023-03-26T03:56:55.286Z,9.16
2023-03-26T03:57:55.227Z,9.06
2023-03-26T03:58:55.197Z,9.09
2023-03-26T03:59:55.192Z,9.09
2023-03-26T04:00:55.147Z,9.01
2023-03-26T04:01:55.146Z,9.01
2023-03-26T04:02:55.165Z,9.04
2023-03-26T04:03:55.196Z,8.99
2023-03-26T04:04:55.047Z,8.96
2023-03-26T04:05:55.458Z,8.91
2023-03-26T04:06:55.000Z,8.90
2023-03-26T04:07:54.996Z,8.87
2023-03-26T04:08:54.955Z,8.97
2023-03-26T04:09:54.949Z,8.91
2023-03-26T04:10:54.920Z,8.93
2023-03-26T04:11:54.885Z,8.91
2023-03-26T04:12:54.858Z,8.91
2023-03-26T04:13:54.833Z,8.99
2023-03-26T04:14:54.803Z,8.96
2023-03-26T04:15:55.068Z,9.01
2023-03-26T04:16:54.756Z,8.97
2023-03-26T04:17:54.775Z,8.96
2023-03-26T04:18:54.706Z,8.96
2023-03-26T04:19:54.680Z,9.05
2023-03-26T04:20:54.653Z,9.04
2023-03-26T04:21:54.639Z,8.94
2023-03-26T04:22:54.609Z,8.96
2023-03-26T04:23:54.583Z,8.90
2023-03-26T04:24:54.716Z,9.01
2023-03-26T04:25:54.764Z,9.01
2023-03-26T04:26:54.514Z,9.01
2023-03-26T04:27:54.490Z,8.96
2023-03-26T04:28:54.456Z,8.99
2023-03-26T04:29:54.444Z,8.96
2023-03-26T04:30:54.409Z,8.96
2023-03-26T04:31:54.459Z,8.91
2023-03-26T04:32:54.504Z,8.94
2023-03-26T04:33:54.344Z,8.88
2023-03-26T04:34:54.832Z,8.88
2023-03-26T04:35:54.605Z,8.88
2023-03-26T04:36:54.269Z,8.84
2023-03-26T04:37:54.247Z,8.76
2023-03-26T04:38:54.232Z,8.79
2023-03-26T04:39:54.203Z,8.68
2023-03-26T04:40:54.164Z,8.69
2023-03-26T04:41:54.151Z,8.78
2023-03-26T04:42:54.112Z,8.71
2023-03-26T04:43:54.118Z,8.73
2023-03-26T04:44:54.065Z,8.57
2023-03-26T04:45:54.456Z,8.65
2023-03-26T04:46:54.112Z,8.66
2023-03-26T04:47:54.060Z,8.62
2023-03-26T04:48:53.978Z,8.60
2023-03-26T04:49:53.944Z,8.57
2023-03-26T04:50:53.935Z,8.66
2023-03-26T04:51:53.898Z,8.66
2023-03-26T04:52:53.869Z,8.69
2023-03-26T04:53:53.857Z,8.68
2023-03-26T04:54:53.812Z,8.75
2023-03-26T04:55:53.925Z,8.68
2023-03-26T04:56:53.868Z,8.73
2023-03-26T04:57:53.749Z,8.73
2023-03-26T04:58:53.728Z,8.66
2023-03-26T04:59:53.742Z,8.69
2023-03-26T05:00:53.709Z,8.79
2023-03-26T05:01:53.655Z,8.69
2023-03-26T05:02:53.612Z,8.66
2023-03-26T05:03:53.615Z,8.62
2023-03-26T05:04:53.578Z,8.60
2023-03-26T05:05:53.850Z,8.65
2023-03-26T05:06:53.524Z,8.58
2023-03-26T05:07:53.495Z,8.55
2023-03-26T05:08:53.482Z,8.54
2023-03-26T05:09:53.453Z,8.65
2023-03-26T05:10:53.759Z,8.69
2023-03-26T05:11:53.397Z,8.73
2023-03-26T05:12:53.368Z,8.68
2023-03-26T05:13:53.363Z,8.73
2023-03-26T05:14:53.315Z,8.72
2023-03-26T05:15:53.303Z,8.69
2023-03-26T05:16:53.356Z,8.75
2023-03-26T05:17:53.321Z,8.66
2023-03-26T05:18:53.247Z,8.63
2023-03-26T05:19:53.224Z,8.62
2023-03-26T05:20:53.498Z,8.58
2023-03-26T05:21:53.150Z,8.55
2023-03-26T05:22:53.126Z,8.68
2023-03-26T05:23:53.158Z,8.58
2023-03-26T05:24:53.070Z,8.55
2023-03-26T05:25:53.060Z,8.60
2023-03-26T05:26:53.029Z,8.60
2023-03-26T05:27:53.001Z,8.62
2023-03-26T05:28:52.979Z,8.63
2023-03-26T05:29:52.961Z,8.58
2023-03-26T05:30:53.190Z,8.54
2023-03-26T05:31:52.913Z,8.57
2023-03-26T05:32:52.964Z,8.55
2023-03-26T05:33:52.886Z,8.55
2023-03-26T05:34:52.825Z,8.53
2023-03-26T05:35:52.863Z,8.54
2023-03-26T05:36:52.778Z,8.48
2023-03-26T05:37:52.758Z,8.47
2023-03-26T05:38:52.728Z,8.53
2023-03-26T05:39:52.715Z,8.54
2023-03-26T05:40:52.812Z,8.57
2023-03-26T05:41:52.666Z,8.51
2023-03-26T05:42:52.641Z,8.58
2023-03-26T05:43:52.607Z,8.53
2023-03-26T05:44:52.593Z,8.54
2023-03-26T05:45:52.630Z,8.51
2023-03-26T05:46:52.556Z,8.54
2023-03-26T05:47:52.580Z,8.60
2023-03-26T05:48:52.490Z,8.53
2023-03-26T05:49:52.465Z,8.57
2023-03-26T05:50:52.695Z,8.57
2023-03-26T05:51:54.989Z,8.62
2023-03-26T05:52:52.409Z,8.63
2023-03-26T05:53:52.372Z,8.50
2023-03-26T05:54:52.339Z,8.54
2023-03-26T05:55:52.316Z,8.55
2023-03-26T05:56:52.305Z,8.54
2023-03-26T05:57:52.281Z,8.53
2023-03-26T05:58:52.283Z,8.50
2023-03-26T05:59:52.228Z,8.55
2023-03-26T06:00:52.286Z,8.58
2023-03-26T06:01:52.167Z,8.60
2023-03-26T06:02:52.205Z,8.66
2023-03-26T06:03:52.169Z,8.60
2023-03-26T06:04:52.114Z,8.62
2023-03-26T06:05:52.068Z,8.66
2023-03-26T06:06:52.042Z,8.65
2023-03-26T06:07:52.019Z,8.63
2023-03-26T06:09:02.015Z,8.69
2023-03-26T06:09:51.992Z,8.58
2023-03-26T06:10:51.962Z,8.75
2023-03-26T06:11:51.927Z,8.76
2023-03-26T06:12:51.901Z,8.66
2023-03-26T06:13:51.871Z,8.69
2023-03-26T06:14:51.848Z,8.65
2023-03-26T06:15:51.871Z,8.84
2023-03-26T06:16:51.801Z,8.72
2023-03-26T06:17:51.815Z,8.79
2023-03-26T06:18:56.568Z,8.79
2023-03-26T06:19:51.747Z,8.79
2023-03-26T06:20:51.763Z,8.83
2023-03-26T06:21:51.692Z,8.87
2023-03-26T06:22:51.668Z,8.81
2023-03-26T06:23:51.700Z,8.78
2023-03-26T06:24:51.605Z,8.86
2023-03-26T06:25:51.573Z,8.78
2023-03-26T06:26:51.563Z,8.84
2023-03-26T06:27:51.536Z,8.87
2023-03-26T06:28:51.505Z,8.79
2023-03-26T06:29:51.489Z,8.84
2023-03-26T06:30:51.580Z,8.88
2023-03-26T06:31:51.431Z,8.83
2023-03-26T06:32:51.571Z,8.84
2023-03-26T06:33:51.393Z,8.91
2023-03-26T06:34:51.366Z,8.83
2023-03-26T06:35:51.376Z,8.91
2023-03-26T06:36:51.318Z,8.96
2023-03-26T06:37:51.302Z,9.02
2023-03-26T06:38:51.271Z,9.02
2023-03-26T06:39:51.264Z,9.02
2023-03-26T06:40:51.233Z,9.04
2023-03-26T06:41:51.202Z,9.09
2023-03-26T06:43:09.374Z,9.01
2023-03-26T06:43:51.142Z,9.09
2023-03-26T06:44:51.121Z,9.09
2023-03-26T06:45:51.102Z,9.10
2023-03-26T06:46:51.147Z,9.04
2023-03-26T06:47:51.110Z,9.04
2023-03-26T06:48:51.024Z,8.97
2023-03-26T06:49:51.009Z,8.99
2023-03-26T06:50:51.055Z,9.04
2023-03-26T06:51:50.957Z,9.01
2023-03-26T06:52:50.924Z,8.99
2023-03-26T06:53:50.901Z,9.01
2023-03-26T06:54:50.886Z,8.96
2023-03-26T06:55:50.853Z,8.91
2023-03-26T06:56:50.902Z,8.94
2023-03-26T06:57:50.852Z,8.93
2023-03-26T06:58:50.800Z,8.97
2023-03-26T06:59:50.761Z,8.91
2023-03-26T07:00:50.760Z,8.96
2023-03-26T07:01:50.713Z,8.99
2023-03-26T07:02:50.715Z,9.01
2023-03-26T07:03:50.721Z,9.01
2023-03-26T07:04:50.698Z,8.96
2023-03-26T07:05:50.608Z,9.02
2023-03-26T07:06:50.593Z,9.02
2023-03-26T07:07:50.557Z,9.05
2023-03-26T07:08:50.546Z,8.97
2023-03-26T07:09:50.521Z,9.01
2023-03-26T07:10:50.490Z,8.99
2023-03-26T07:11:50.460Z,8.90
2023-03-26T07:12:50.441Z,8.94
2023-03-26T07:13:50.411Z,8.99
2023-03-26T07:14:50.413Z,8.94
2023-03-26T07:15:50.381Z,8.94
2023-03-26T07:16:50.427Z,8.86
2023-03-26T07:17:50.363Z,8.91
2023-03-26T07:18:50.305Z,8.96
2023-03-26T07:19:50.401Z,8.86
2023-03-26T07:20:50.261Z,8.87
2023-03-26T07:21:50.234Z,8.84
2023-03-26T07:22:50.238Z,8.79
2023-03-26T07:23:50.172Z,8.90
2023-03-26T07:24:50.152Z,8.79
2023-03-26T07:25:50.143Z,8.78
2023-03-26T07:26:50.107Z,8.88
2023-03-26T07:27:50.075Z,8.88
2023-03-26T07:29:04.851Z,8.91
2023-03-26T07:29:50.035Z,8.88
2023-03-26T07:30:50.011Z,8.91
2023-03-26T07:31:50.005Z,8.91
2023-03-26T07:32:50.056Z,8.93
2023-03-26T07:33:49.926Z,8.94
2023-03-26T07:34:49.920Z,8.93
2023-03-26T07:35:49.946Z,8.91
2023-03-26T07:36:49.855Z,8.99
2023-03-26T07:37:49.831Z,8.96
2023-03-26T07:38:49.803Z,8.99
2023-03-26T07:39:49.780Z,8.99
2023-03-26T07:40:49.765Z,8.93
2023-03-26T07:41:49.735Z,8.90
2023-03-26T07:42:49.743Z,8.90
2023-03-26T07:43:49.677Z,8.88
2023-03-26T07:44:49.694Z,8.87
2023-03-26T07:45:49.675Z,8.90
2023-03-26T07:46:49.630Z,8.84
2023-03-26T07:47:49.675Z,8.84
2023-03-26T07:48:49.574Z,8.87
2023-03-26T07:49:49.548Z,8.84
2023-03-26T07:50:49.511Z,8.84
2023-03-26T07:51:49.492Z,8.79
2023-03-26T07:52:49.703Z,8.91
2023-03-26T07:53:49.441Z,8.90
2023-03-26T07:54:49.449Z,8.91
2023-03-26T07:55:49.404Z,8.90
2023-03-26T07:56:49.462Z,8.97
2023-03-26T07:57:49.337Z,8.96
2023-03-26T07:58:49.333Z,9.01
2023-03-26T07:59:49.297Z,9.05
2023-03-26T08:00:49.273Z,9.09
2023-03-26T08:01:49.275Z,9.06
2023-03-26T08:02:49.322Z,9.06
2023-03-26T08:03:49.290Z,9.13
2023-03-26T08:04:49.304Z,9.15
2023-03-26T08:05:49.135Z,9.10
2023-03-26T08:06:49.117Z,9.12
2023-03-26T08:07:49.107Z,8.99
2023-03-26T08:08:49.079Z,9.05
2023-03-26T08:09:49.042Z,9.06
2023-03-26T08:10:49.028Z,9.09
2023-03-26T08:11:49.006Z,9.16
2023-03-26T08:12:48.979Z,9.06
2023-03-26T08:13:48.943Z,9.18
2023-03-26T08:14:48.928Z,9.15
2023-03-26T08:16:48.879Z,9.16
2023-03-26T08:17:48.869Z,9.13
2023-03-26T08:18:48.834Z,9.15
2023-03-26T08:19:48.800Z,9.25
2023-03-26T08:20:48.778Z,9.34
2023-03-26T08:21:48.754Z,9.35
2023-03-26T08:22:48.742Z,9.48
2023-03-26T08:23:50.977Z,9.61
2023-03-26T08:24:48.685Z,9.56
2023-03-26T08:25:48.657Z,9.53
2023-03-26T08:26:48.631Z,9.63
2023-03-26T08:27:48.608Z,9.66
2023-03-26T08:28:48.590Z,9.64
2023-03-26T08:29:48.554Z,9.61
2023-03-26T08:30:48.591Z,9.56
2023-03-26T08:31:48.520Z,9.56
2023-03-26T08:32:48.540Z,9.46
2023-03-26T08:33:48.473Z,9.46
2023-03-26T08:34:48.495Z,9.40
2023-03-26T08:35:48.457Z,9.32
2023-03-26T08:36:48.398Z,9.35
2023-03-26T08:37:48.366Z,9.35
2023-03-26T08:38:48.348Z,9.32
2023-03-26T08:39:48.324Z,9.35
2023-03-26T08:40:48.297Z,9.35
2023-03-26T08:41:48.273Z,9.39
2023-03-26T08:42:48.254Z,9.32
2023-03-26T08:43:48.221Z,9.35
2023-03-26T08:44:48.289Z,9.38
2023-03-26T08:45:48.176Z,9.25
2023-03-26T08:46:48.177Z,9.28
2023-03-26T08:47:48.170Z,9.24
2023-03-26T08:48:48.105Z,9.12
2023-03-26T08:49:48.089Z,9.16
2023-03-26T08:50:48.063Z,9.13
2023-03-26T08:51:48.028Z,9.13
2023-03-26T08:52:48.010Z,9.06
2023-03-26T08:53:47.981Z,9.12
2023-03-26T08:54:47.962Z,9.16
2023-03-26T08:55:47.931Z,9.12
2023-03-26T08:56:47.952Z,9.15
2023-03-26T08:57:47.885Z,9.18
2023-03-26T08:58:47.869Z,9.15
2023-03-26T08:59:47.846Z,9.23
2023-03-26T09:00:47.852Z,9.10
2023-03-26T09:01:47.855Z,9.05
2023-03-26T09:02:47.851Z,9.04
2023-03-26T09:03:47.821Z,9.09
2023-03-26T09:04:47.718Z,9.13
2023-03-26T09:05:47.685Z,9.05
2023-03-26T09:06:47.680Z,8.94
2023-03-26T09:07:47.641Z,8.91
2023-03-26T09:08:54.388Z,8.75
2023-03-26T09:09:47.592Z,8.84
2023-03-26T09:10:47.573Z,8.81
2023-03-26T09:17:02.001Z,8.68
2023-03-26T09:18:02.010Z,8.84
2023-03-26T09:19:01.938Z,8.90
2023-03-26T09:20:01.900Z,8.87
2023-03-26T09:21:01.889Z,8.90
2023-03-26T09:22:01.855Z,8.99
2023-03-26T09:23:01.843Z,8.99
2023-03-26T09:24:01.798Z,9.05
2023-03-26T09:25:01.799Z,8.99
2023-03-26T09:26:01.927Z,9.02
2023-03-26T09:27:01.733Z,9.10
2023-03-26T09:28:01.714Z,9.18
2023-03-26T09:29:01.706Z,9.18
2023-03-26T09:30:01.654Z,9.43
2023-03-26T09:31:01.651Z,9.49
2023-03-26T09:32:01.659Z,9.52
2023-03-26T09:33:01.605Z,9.61
2023-03-26T09:34:01.569Z,9.40
2023-03-26T09:35:01.557Z,9.46
2023-03-26T09:36:01.540Z,9.40
2023-03-26T09:37:01.491Z,9.34
2023-03-26T09:38:01.533Z,9.35
2023-03-26T09:39:01.446Z,9.56
2023-03-26T09:40:01.420Z,9.82
2023-03-26T09:41:01.394Z,10.43
2023-03-26T09:42:01.366Z,10.62
2023-03-26T09:43:01.350Z,10.51
2023-03-26T09:44:01.320Z,10.58
2023-03-26T09:45:01.310Z,10.37
2023-03-26T09:46:01.366Z,10.40
2023-03-26T09:47:01.260Z,10.42
2023-03-26T09:48:01.343Z,10.53
2023-03-26T09:49:01.258Z,10.37
2023-03-26T09:50:01.177Z,10.51
2023-03-26T09:51:01.173Z,10.47
2023-03-26T09:52:01.232Z,10.34
2023-03-26T09:53:01.124Z,10.14
2023-03-26T09:54:01.107Z,10.15
2023-03-26T09:55:01.070Z,10.39
2023-03-26T09:56:01.042Z,10.32
2023-03-26T09:57:01.102Z,10.32
2023-03-26T09:58:01.087Z,10.18
2023-03-26T09:59:00.982Z,10.10
2023-03-26T10:00:00.963Z,10.09
2023-03-26T10:01:01.009Z,10.07
2023-03-26T10:02:00.909Z,10.01
2023-03-26T10:03:00.930Z,10.15
2023-03-26T10:04:00.862Z,10.15
2023-03-26T10:05:00.901Z,10.18
2023-03-26T10:06:00.821Z,10.18
2023-03-26T10:07:00.809Z,10.28
2023-03-26T10:08:00.784Z,10.32
2023-03-26T10:09:00.755Z,10.22
2023-03-26T10:10:00.728Z,10.10
2023-03-26T10:11:00.728Z,10.06
2023-03-26T10:12:00.690Z,9.89
2023-03-26T10:13:11.960Z,9.99
2023-03-26T10:14:00.636Z,9.94
2023-03-26T10:15:00.655Z,10.00
2023-03-26T10:16:00.629Z,9.99
2023-03-26T10:17:00.586Z,10.03
2023-03-26T10:18:00.557Z,10.04
2023-03-26T10:19:00.524Z,10.12
2023-03-26T10:20:00.513Z,10.17
2023-03-26T10:21:00.482Z,10.09
2023-03-26T10:22:00.458Z,10.01
2023-03-26T10:23:00.444Z,9.89
2023-03-26T10:24:00.455Z,9.99
2023-03-26T10:25:00.385Z,10.04
2023-03-26T10:26:00.359Z,10.10
2023-03-26T10:27:09.309Z,10.15
2023-03-26T10:28:00.311Z,10.09
2023-03-26T10:29:00.335Z,9.97
2023-03-26T10:30:00.265Z,10.06
2023-03-26T10:31:00.381Z,10.06
2023-03-26T10:32:00.227Z,10.01
2023-03-26T10:33:00.257Z,9.99
2023-03-26T10:34:00.177Z,10.01
2023-03-26T10:35:00.156Z,10.01
2023-03-26T10:36:00.214Z,10.17
2023-03-26T10:37:00.114Z,10.28
2023-03-26T10:38:00.098Z,10.53
2023-03-26T10:39:00.074Z,10.30
2023-03-26T10:40:00.072Z,10.40
2023-03-26T10:41:00.095Z,11.13
2023-03-26T10:41:59.993Z,11.67
2023-03-26T10:42:59.973Z,11.90
2023-03-26T10:44:07.969Z,12.49
2023-03-26T10:44:59.929Z,12.27
2023-03-26T10:46:00.003Z,12.42
2023-03-26T10:46:59.886Z,12.30
2023-03-26T10:47:59.892Z,12.54
2023-03-26T10:48:59.852Z,12.64
2023-03-26T10:49:59.821Z,12.81
2023-03-26T10:50:59.797Z,12.97
2023-03-26T10:51:59.774Z,12.93
2023-03-26T10:52:59.775Z,13.40
2023-03-26T10:53:59.747Z,13.49
2023-03-26T10:54:59.726Z,13.58
2023-03-26T10:55:59.699Z,13.71
2023-03-26T10:56:59.711Z,14.02
2023-03-26T10:57:59.667Z,14.24
2023-03-26T10:58:59.643Z,14.67
2023-03-26T10:59:59.638Z,14.27
2023-03-26T11:00:59.600Z,14.65
2023-03-26T11:01:59.610Z,15.27
2023-03-26T11:02:59.602Z,15.33
2023-03-26T11:03:59.548Z,15.38
2023-03-26T11:04:59.544Z,15.19
2023-03-26T11:05:59.999Z,14.42
2023-03-26T11:06:59.528Z,14.39
2023-03-26T11:07:59.497Z,14.60
2023-03-26T11:08:59.490Z,14.83
2023-03-26T11:09:59.451Z,14.84
2023-03-26T11:10:59.458Z,14.67
2023-03-26T11:11:59.427Z,14.19
2023-03-26T11:12:59.434Z,13.79
2023-03-26T11:13:59.398Z,13.43
2023-03-26T11:14:59.385Z,13.21
2023-03-26T11:15:59.389Z,13.29
2023-03-26T11:16:59.357Z,13.32
2023-03-26T11:17:59.352Z,13.52
2023-03-26T11:18:59.342Z,13.58
2023-03-26T11:19:59.295Z,13.41
2023-03-26T11:21:19.146Z,13.15
2023-03-26T11:21:59.260Z,13.30
2023-03-26T11:22:59.248Z,13.11
2023-03-26T11:24:04.504Z,12.99
2023-03-26T11:24:59.220Z,13.03
2023-03-26T11:25:59.193Z,13.06
2023-03-26T11:27:15.193Z,12.93
2023-03-26T11:27:59.195Z,13.03
2023-03-26T11:29:03.056Z,13.03
2023-03-26T11:29:59.117Z,13.14
2023-03-26T11:30:59.444Z,13.12
2023-03-26T11:31:59.073Z,13.11
2023-03-26T11:32:59.109Z,13.00
2023-03-26T11:33:59.059Z,12.84
2023-03-26T11:34:59.020Z,12.81
2023-03-26T11:35:59.020Z,12.84
2023-03-26T11:36:58.980Z,12.85
2023-03-26T11:37:58.961Z,12.81
2023-03-26T11:38:58.940Z,12.51
2023-03-26T11:39:58.917Z,12.44
2023-03-26T11:40:59.108Z,12.27
2023-03-26T11:41:58.892Z,12.19
2023-03-26T11:42:58.868Z,12.04
2023-03-26T11:43:58.837Z,11.99
2023-03-26T11:44:58.819Z,11.94
2023-03-26T11:45:58.844Z,11.85
2023-03-26T11:46:58.989Z,11.75
2023-03-26T11:47:58.787Z,11.77
2023-03-26T11:48:58.739Z,11.96
2023-03-26T11:49:58.706Z,12.02
2023-03-26T11:50:58.690Z,12.29
2023-03-26T11:51:58.666Z,12.39
2023-03-26T11:52:58.654Z,12.57
2023-03-26T11:53:58.629Z,12.75
2023-03-26T11:54:58.697Z,12.62
2023-03-26T11:57:05.211Z,12.64
2023-03-26T11:57:58.576Z,12.54
2023-03-26T11:58:58.517Z,12.41
2023-03-26T11:59:58.504Z,12.70
2023-03-26T12:00:58.477Z,13.06
2023-03-26T12:01:58.524Z,12.89
2023-03-26T12:02:58.454Z,12.79
2023-03-26T12:04:58.553Z,12.85
2023-03-26T12:05:58.369Z,12.85
2023-03-26T12:06:58.344Z,12.79
2023-03-26T12:07:58.446Z,12.78
2023-03-26T12:08:58.305Z,12.84
2023-03-26T12:09:58.303Z,12.87
2023-03-26T12:10:58.281Z,12.77
2023-03-26T12:11:58.264Z,12.81
2023-03-26T12:12:58.310Z,12.69
2023-03-26T12:13:58.196Z,12.52
2023-03-26T12:14:58.184Z,12.42
2023-03-26T12:15:58.195Z,12.44
2023-03-26T12:16:58.200Z,12.44
2023-03-26T12:17:58.212Z,12.48
2023-03-26T12:18:58.093Z,12.49
2023-03-26T12:19:58.069Z,12.71
2023-03-26T12:20:58.054Z,12.81
2023-03-26T12:21:58.022Z,13.17
2023-03-26T12:22:58.013Z,13.77
2023-03-26T12:23:58.047Z,14.12
2023-03-26T12:24:57.966Z,14.21
2023-03-26T12:25:57.940Z,14.17
2023-03-26T12:26:57.925Z,13.91
2023-03-26T12:27:57.914Z,14.02
2023-03-26T12:28:57.906Z,14.61
2023-03-26T12:29:57.871Z,14.62
2023-03-26T12:30:57.949Z,14.67
2023-03-26T12:31:57.892Z,14.24
2023-03-26T12:32:57.858Z,13.94
2023-03-26T12:33:59.037Z,13.95
2023-03-26T12:34:57.827Z,13.54
2023-03-26T12:35:57.808Z,13.21
2023-03-26T12:36:57.761Z,13.15
2023-03-26T12:37:57.732Z,13.09
2023-03-26T12:39:16.332Z,13.06
2023-03-26T12:40:08.661Z,13.00
2023-03-26T12:40:57.689Z,13.27
2023-03-26T12:44:42.086Z,13.77
2023-03-26T12:44:48.638Z,14.31
2023-03-26T12:44:54.825Z,14.12
2023-03-26T12:44:59.646Z,14.62
2023-03-26T12:47:46.056Z,14.46
2023-03-26T12:47:58.656Z,14.39
2023-03-26T12:48:04.064Z,14.65
2023-03-26T12:48:57.599Z,14.19
2023-03-26T12:49:57.579Z,13.84
2023-03-26T12:50:57.820Z,13.79
2023-03-26T12:51:57.555Z,13.65
2023-03-26T12:52:57.515Z,13.51
2023-03-26T12:53:57.467Z,13.32
2023-03-26T12:54:57.461Z,13.30
2023-03-26T12:55:57.456Z,13.25
2023-03-26T12:57:11.938Z,13.54
2023-03-26T12:57:57.383Z,14.01
2023-03-26T12:58:57.370Z,14.17
2023-03-26T12:59:57.362Z,14.43
2023-03-26T13:00:57.638Z,14.62
2023-03-26T13:01:57.356Z,14.56
2023-03-26T13:02:57.392Z,14.29
2023-03-26T13:03:57.292Z,14.65
2023-03-26T13:05:05.755Z,14.60
2023-03-26T13:05:57.269Z,14.27
2023-03-26T13:06:59.810Z,13.96
2023-03-26T13:07:57.219Z,13.92
2023-03-26T13:08:57.206Z,13.87
2023-03-26T13:09:57.192Z,14.06
2023-03-26T13:10:57.410Z,13.99
2023-03-26T13:11:57.149Z,13.95
2023-03-26T13:12:57.141Z,13.91
2023-03-26T13:13:57.125Z,13.80
2023-03-26T13:14:57.096Z,13.76
2023-03-26T13:15:57.086Z,13.76
2023-03-26T13:16:57.101Z,13.91